Buoy 55952

sailwx.info

Track history (hours):
 
Tides and Currents Weather Stations Pressure Air Temp Water Temp Dewpoint Dewpoint Depression Visibility Wind Speed Wind Dir Waves Ship Positions

Drifting buoy 55952

Last reported at 2017-Dec-17 23:00 UTC. Time now 2017-Dec-18 03:35 UTC.
Position S 30°39' E 160°11'.

Date/timePositionNaut miles runAvg speedWind from/ knotsBaromVisibWave heightAir tempDewpointWater temp
2017-Dec-17 23:00S 30°39' E 160°11'1 0.3
2017-Dec-17 20:00S 30°38' E 160°12'1 0.6
2017-Dec-17 19:00S 30°38' E 160°12'1 0.6
2017-Dec-17 17:00S 30°37' E 160°12'1 1.2
2017-Dec-17 16:00S 30°35' E 160°12'0 0.0
2017-Dec-17 15:00S 30°35' E 160°12'2 0.6
2017-Dec-17 11:00S 30°34' E 160°14'1 0.5
2017-Dec-17 10:00S 30°34' E 160°14'1 0.6
2017-Dec-17 09:00S 30°33' E 160°14'1 0.8
2017-Dec-17 08:00S 30°32' E 160°14'0 0.0
2017-Dec-17 06:00S 30°32' E 160°14'1 0.8
2017-Dec-17 05:00S 30°32' E 160°13'1 0.5
2017-Dec-17 04:00S 30°32' E 160°13'2 0.3
2017-Dec-16 22:00S 30°30' E 160°13'1 0.6
2017-Dec-16 21:00S 30°29' E 160°13'1 0.5
2017-Dec-16 20:00S 30°29' E 160°13'1 0.6
2017-Dec-16 19:00S 30°29' E 160°13'1 0.6
2017-Dec-16 18:00S 30°28' E 160°13'0 0.0
2017-Dec-16 16:00S 30°28' E 160°13'0 0.0
2017-Dec-16 15:00S 30°28' E 160°13'1 0.3
2017-Dec-16 12:00S 30°28' E 160°12'1 0.8
2017-Dec-16 11:00S 30°27' E 160°13'0 0.0
2017-Dec-16 10:00S 30°27' E 160°13'0 0.0
2017-Dec-16 09:00S 30°27' E 160°13'1 1.2
2017-Dec-16 08:00S 30°26' E 160°11'1 0.8
2017-Dec-16 07:00S 30°26' E 160°11'1 0.5
2017-Dec-16 06:00S 30°26' E 160°10'1 1.3
2017-Dec-16 05:00S 30°25' E 160°10'0 0.0
2017-Dec-16 04:00S 30°25' E 160°10'1 0.2
2017-Dec-15 23:00S 30°24' E 160°09'1 0.5
2017-Dec-15 22:00S 30°24' E 160°08'1 0.8
2017-Dec-15 21:00S 30°23' E 160°08'1 1.0
2017-Dec-15 20:00S 30°23' E 160°07'0 0.0
2017-Dec-15 18:00S 30°23' E 160°07'4 2.0
2017-Dec-15 16:00S 30°25' E 160°02'0 0.0
2017-Dec-15 12:00S 30°25' E 160°02'0 0.0
2017-Dec-15 11:00S 30°25' E 160°02'1 0.5
2017-Dec-15 10:00S 30°25' E 160°02'1 1.2
2017-Dec-15 09:00S 30°25' E 160°01'0 0.0
2017-Dec-15 08:00S 30°25' E 160°01'0 0.0
2017-Dec-15 07:00S 30°25' E 160°01'1 0.5
2017-Dec-15 06:00S 30°25' E 160°01'1 1.0
2017-Dec-15 05:00S 30°25' E 160°00'0 0.0
2017-Dec-15 04:00S 30°25' E 160°00'1 0.2
2017-Dec-14 23:00S 30°25' E 159°59'1 0.6
2017-Dec-14 21:00S 30°26' E 159°58'1 1.2
2017-Dec-14 20:00S 30°25' E 159°57'0 0.0
2017-Dec-14 19:00S 30°25' E 159°57'0 0.0
2017-Dec-14 18:00S 30°25' E 159°57'4 1.9
2017-Dec-14 16:00S 30°26' E 159°53'0 0.0
2017-Dec-14 15:00S 30°26' E 159°53'0 0.0
2017-Dec-14 12:00S 30°26' E 159°53'1 0.6
2017-Dec-14 11:00S 30°26' E 159°53'0 0.0
2017-Dec-14 10:00S 30°26' E 159°53'2 2.1
2017-Dec-14 09:00S 30°26' E 159°50'1 0.6
2017-Dec-14 08:00S 30°25' E 159°50'0 0.0
2017-Dec-14 07:00S 30°25' E 159°50'0 0.0
2017-Dec-14 06:00S 30°25' E 159°50'1 1.0
2017-Dec-14 05:00S 30°25' E 159°49'5 0.8
2017-Dec-13 23:00S 30°30' E 159°48'0 0.0
2017-Dec-13 22:00S 30°30' E 159°48'2 1.7
2017-Dec-13 21:00S 30°31' E 159°46'0 0.0
2017-Dec-13 20:00S 30°31' E 159°46'1 0.6
2017-Dec-13 19:00S 30°31' E 159°46'0 0.0
2017-Dec-13 17:00S 30°31' E 159°46'0 0.0
2017-Dec-13 16:00S 30°31' E 159°46'1 1.3
2017-Dec-13 15:00S 30°32' E 159°47'0 0.0
2017-Dec-13 14:00S 30°32' E 159°47'1 0.3
2017-Dec-13 11:00S 30°33' E 159°46'1 0.5
2017-Dec-13 10:00S 30°33' E 159°47'1 0.3
2017-Dec-13 08:00S 30°32' E 159°47'0 0.0
2017-Dec-13 07:00S 30°32' E 159°47'0 0.0
2017-Dec-13 06:00S 30°32' E 159°47'1 0.5
2017-Dec-13 05:00S 30°32' E 159°47'0 0.0
2017-Dec-13 04:00S 30°32' E 159°47'1 0.2
2017-Dec-12 23:00S 30°34' E 159°47'1 0.2
2017-Dec-12 20:00S 30°34' E 159°47'0 0.0
2017-Dec-12 19:00S 30°34' E 159°47'1 1.3
2017-Dec-12 18:00S 30°32' E 159°46'0 0.0
2017-Dec-12 17:00S 30°32' E 159°46'0 0.0
2017-Dec-12 16:00S 30°32' E 159°46'1 0.2
2017-Dec-12 11:00S 30°33' E 159°47'0 0.0
2017-Dec-12 10:00S 30°33' E 159°47'1 0.5
2017-Dec-12 09:00S 30°33' E 159°46'1 1.0
2017-Dec-12 08:00S 30°33' E 159°45'1 0.3
2017-Dec-12 06:00S 30°33' E 159°46'1 0.5
2017-Dec-12 05:00S 30°33' E 159°45'1 1.2
2017-Dec-12 04:00S 30°34' E 159°45'0 0.0
2017-Dec-12 03:00S 30°34' E 159°45'1 0.2
2017-Dec-11 22:00S 30°35' E 159°44'1 0.5
2017-Dec-11 20:00S 30°35' E 159°43'1 0.7
2017-Dec-11 18:00S 30°34' E 159°44'0 0.0
2017-Dec-11 17:00S 30°34' E 159°44'1 0.8
2017-Dec-11 16:00S 30°33' E 159°43'0 0.0
2017-Dec-11 15:00S 30°33' E 159°43'3 0.9
2017-Dec-11 12:00S 30°35' E 159°46'1 0.6
2017-Dec-11 11:00S 30°35' E 159°46'1 1.3
2017-Dec-11 10:00S 30°37' E 159°45'0 0.0
2017-Dec-11 09:00S 30°37' E 159°45'1 1.0
2017-Dec-11 08:00S 30°37' E 159°44'0 0.0
2017-Dec-11 07:00S 30°37' E 159°44'0 0.0
2017-Dec-11 06:00S 30°37' E 159°44'1 0.6
2017-Dec-11 05:00S 30°36' E 159°44'0 0.0
2017-Dec-11 04:00S 30°36' E 159°44'0 0.0
2017-Dec-11 03:00S 30°36' E 159°44'3 0.5
2017-Dec-10 22:00S 30°38' E 159°46'1 0.3
2017-Dec-10 20:00S 30°38' E 159°46'0 0.0
2017-Dec-10 19:00S 30°38' E 159°46'1 1.3
2017-Dec-10 18:00S 30°37' E 159°46'1 0.6
2017-Dec-10 17:00S 30°36' E 159°46'1 0.6
2017-Dec-10 16:00S 30°35' E 159°46'0 0.0
2017-Dec-10 15:00S 30°35' E 159°46'3 1.1
2017-Dec-10 12:00S 30°37' E 159°50'0 0.0
2017-Dec-10 11:00S 30°37' E 159°50'1 0.5
2017-Dec-10 10:00S 30°37' E 159°49'1 0.8
2017-Dec-10 09:00S 30°37' E 159°49'1 0.5
2017-Dec-10 08:00S 30°37' E 159°49'1 0.5
2017-Dec-10 07:00S 30°37' E 159°49'0 0.0
2017-Dec-10 06:00S 30°37' E 159°49'1 1.3
2017-Dec-10 05:00S 30°36' E 159°48'0 0.0
2017-Dec-10 04:00S 30°36' E 159°48'2 0.4
2017-Dec-09 23:00S 30°37' E 159°50'2 0.8
2017-Dec-09 21:00S 30°38' E 159°49'1 0.5
2017-Dec-09 20:00S 30°38' E 159°49'1 0.6
2017-Dec-09 19:00S 30°37' E 159°49'0 0.0
2017-Dec-09 17:00S 30°37' E 159°49'1 0.6
2017-Dec-09 16:00S 30°37' E 159°49'0 0.0
2017-Dec-09 15:00S 30°37' E 159°49'2 0.7
2017-Dec-09 12:00S 30°38' E 159°50'0 0.0
2017-Dec-09 11:00S 30°38' E 159°50'1 0.5
2017-Dec-09 10:00S 30°38' E 159°51'1 0.6
2017-Dec-09 09:00S 30°38' E 159°51'1 1.2
2017-Dec-09 08:00S 30°39' E 159°50'1 0.3
2017-Dec-09 06:00S 30°38' E 159°50'1 0.8
2017-Dec-09 05:00S 30°38' E 159°49'0 0.0
2017-Dec-09 04:00S 30°38' E 159°49'2 1.6
2017-Dec-09 03:00S 30°39' E 159°50'1 0.2
2017-Dec-08 23:00S 30°40' E 159°50'1 0.8
2017-Dec-08 22:00S 30°40' E 159°50'0 0.0
2017-Dec-08 21:00S 30°40' E 159°50'1 0.8
2017-Dec-08 20:00S 30°41' E 159°50'1 0.5
2017-Dec-08 19:00S 30°41' E 159°50'1 0.8
2017-Dec-08 18:00S 30°41' E 159°51'1 0.6
2017-Dec-08 17:00S 30°42' E 159°51'0 0.0
2017-Dec-08 16:00S 30°42' E 159°51'0 0.0
2017-Dec-08 15:00S 30°42' E 159°51'2 0.4
2017-Dec-08 11:00S 30°43' E 159°52'1 1.2
2017-Dec-08 10:00S 30°44' E 159°53'1 0.8
2017-Dec-08 09:00S 30°43' E 159°53'1 1.2
2017-Dec-08 08:00S 30°42' E 159°53'2 1.0
2017-Dec-08 06:00S 30°43' E 159°55'2 1.5
2017-Dec-08 05:00S 30°43' E 159°56'0 0.0
2017-Dec-08 04:00S 30°43' E 159°56'3 0.6
2017-Dec-07 23:00S 30°44' E 160°00'  
Track history (hours):
 
Tides and Currents Weather Stations Pressure Air Temp Water Temp Dewpoint Dewpoint Depression Visibility Wind Speed Wind Dir Waves Ship Positions

Drifting buoy 55952

Last reported at 2017-Dec-17 23:00 UTC. Time now 2017-Dec-18 03:35 UTC.
Position S 30°39' E 160°11'.

Date/timePositionNaut miles runAvg speedWind from/ knotsBaromVisibWave heightAir tempDewpointWater temp
2017-Dec-17 23:00S 30°39' E 160°11'1 0.3
2017-Dec-17 20:00S 30°38' E 160°12'1 0.6
2017-Dec-17 19:00S 30°38' E 160°12'1 0.6
2017-Dec-17 17:00S 30°37' E 160°12'1 1.2
2017-Dec-17 16:00S 30°35' E 160°12'0 0.0
2017-Dec-17 15:00S 30°35' E 160°12'2 0.6
2017-Dec-17 11:00S 30°34' E 160°14'1 0.5
2017-Dec-17 10:00S 30°34' E 160°14'1 0.6
2017-Dec-17 09:00S 30°33' E 160°14'1 0.8
2017-Dec-17 08:00S 30°32' E 160°14'0 0.0
2017-Dec-17 06:00S 30°32' E 160°14'1 0.8
2017-Dec-17 05:00S 30°32' E 160°13'1 0.5
2017-Dec-17 04:00S 30°32' E 160°13'2 0.3
2017-Dec-16 22:00S 30°30' E 160°13'1 0.6
2017-Dec-16 21:00S 30°29' E 160°13'1 0.5
2017-Dec-16 20:00S 30°29' E 160°13'1 0.6
2017-Dec-16 19:00S 30°29' E 160°13'1 0.6
2017-Dec-16 18:00S 30°28' E 160°13'0 0.0
2017-Dec-16 16:00S 30°28' E 160°13'0 0.0
2017-Dec-16 15:00S 30°28' E 160°13'1 0.3
2017-Dec-16 12:00S 30°28' E 160°12'1 0.8
2017-Dec-16 11:00S 30°27' E 160°13'0 0.0
2017-Dec-16 10:00S 30°27' E 160°13'0 0.0
2017-Dec-16 09:00S 30°27' E 160°13'1 1.2
2017-Dec-16 08:00S 30°26' E 160°11'1 0.8
2017-Dec-16 07:00S 30°26' E 160°11'1 0.5
2017-Dec-16 06:00S 30°26' E 160°10'1 1.3
2017-Dec-16 05:00S 30°25' E 160°10'0 0.0
2017-Dec-16 04:00S 30°25' E 160°10'1 0.2
2017-Dec-15 23:00S 30°24' E 160°09'1 0.5
2017-Dec-15 22:00S 30°24' E 160°08'1 0.8
2017-Dec-15 21:00S 30°23' E 160°08'1 1.0
2017-Dec-15 20:00S 30°23' E 160°07'0 0.0
2017-Dec-15 18:00S 30°23' E 160°07'4 2.0
2017-Dec-15 16:00S 30°25' E 160°02'0 0.0
2017-Dec-15 12:00S 30°25' E 160°02'0 0.0
2017-Dec-15 11:00S 30°25' E 160°02'1 0.5
2017-Dec-15 10:00S 30°25' E 160°02'1 1.2
2017-Dec-15 09:00S 30°25' E 160°01'0 0.0
2017-Dec-15 08:00S 30°25' E 160°01'0 0.0
2017-Dec-15 07:00S 30°25' E 160°01'1 0.5
2017-Dec-15 06:00S 30°25' E 160°01'1 1.0
2017-Dec-15 05:00S 30°25' E 160°00'0 0.0
2017-Dec-15 04:00S 30°25' E 160°00'1 0.2
2017-Dec-14 23:00S 30°25' E 159°59'1 0.6
2017-Dec-14 21:00S 30°26' E 159°58'1 1.2
2017-Dec-14 20:00S 30°25' E 159°57'0 0.0
2017-Dec-14 19:00S 30°25' E 159°57'0 0.0
2017-Dec-14 18:00S 30°25' E 159°57'4 1.9
2017-Dec-14 16:00S 30°26' E 159°53'0 0.0
2017-Dec-14 15:00S 30°26' E 159°53'0 0.0
2017-Dec-14 12:00S 30°26' E 159°53'1 0.6
2017-Dec-14 11:00S 30°26' E 159°53'0 0.0
2017-Dec-14 10:00S 30°26' E 159°53'2 2.1
2017-Dec-14 09:00S 30°26' E 159°50'1 0.6
2017-Dec-14 08:00S 30°25' E 159°50'0 0.0
2017-Dec-14 07:00S 30°25' E 159°50'0 0.0
2017-Dec-14 06:00S 30°25' E 159°50'1 1.0
2017-Dec-14 05:00S 30°25' E 159°49'5 0.8
2017-Dec-13 23:00S 30°30' E 159°48'0 0.0
2017-Dec-13 22:00S 30°30' E 159°48'2 1.7
2017-Dec-13 21:00S 30°31' E 159°46'0 0.0
2017-Dec-13 20:00S 30°31' E 159°46'1 0.6
2017-Dec-13 19:00S 30°31' E 159°46'0 0.0
2017-Dec-13 17:00S 30°31' E 159°46'0 0.0
2017-Dec-13 16:00S 30°31' E 159°46'1 1.3
2017-Dec-13 15:00S 30°32' E 159°47'0 0.0
2017-Dec-13 14:00S 30°32' E 159°47'1 0.3
2017-Dec-13 11:00S 30°33' E 159°46'1 0.5
2017-Dec-13 10:00S 30°33' E 159°47'1 0.3
2017-Dec-13 08:00S 30°32' E 159°47'0 0.0
2017-Dec-13 07:00S 30°32' E 159°47'0 0.0
2017-Dec-13 06:00S 30°32' E 159°47'1 0.5
2017-Dec-13 05:00S 30°32' E 159°47'0 0.0
2017-Dec-13 04:00S 30°32' E 159°47'1 0.2
2017-Dec-12 23:00S 30°34' E 159°47'1 0.2
2017-Dec-12 20:00S 30°34' E 159°47'0 0.0
2017-Dec-12 19:00S 30°34' E 159°47'1 1.3
2017-Dec-12 18:00S 30°32' E 159°46'0 0.0
2017-Dec-12 17:00S 30°32' E 159°46'0 0.0
2017-Dec-12 16:00S 30°32' E 159°46'1 0.2
2017-Dec-12 11:00S 30°33' E 159°47'0 0.0
2017-Dec-12 10:00S 30°33' E 159°47'1 0.5
2017-Dec-12 09:00S 30°33' E 159°46'1 1.0
2017-Dec-12 08:00S 30°33' E 159°45'1 0.3
2017-Dec-12 06:00S 30°33' E 159°46'1 0.5
2017-Dec-12 05:00S 30°33' E 159°45'1 1.2
2017-Dec-12 04:00S 30°34' E 159°45'0 0.0
2017-Dec-12 03:00S 30°34' E 159°45'1 0.2
2017-Dec-11 22:00S 30°35' E 159°44'1 0.5
2017-Dec-11 20:00S 30°35' E 159°43'1 0.7
2017-Dec-11 18:00S 30°34' E 159°44'0 0.0
2017-Dec-11 17:00S 30°34' E 159°44'1 0.8
2017-Dec-11 16:00S 30°33' E 159°43'0 0.0
2017-Dec-11 15:00S 30°33' E 159°43'3 0.9
2017-Dec-11 12:00S 30°35' E 159°46'1 0.6
2017-Dec-11 11:00S 30°35' E 159°46'1 1.3
2017-Dec-11 10:00S 30°37' E 159°45'0 0.0
2017-Dec-11 09:00S 30°37' E 159°45'1 1.0
2017-Dec-11 08:00S 30°37' E 159°44'0 0.0
2017-Dec-11 07:00S 30°37' E 159°44'0 0.0
2017-Dec-11 06:00S 30°37' E 159°44'1 0.6
2017-Dec-11 05:00S 30°36' E 159°44'0 0.0
2017-Dec-11 04:00S 30°36' E 159°44'0 0.0
2017-Dec-11 03:00S 30°36' E 159°44'3 0.5
2017-Dec-10 22:00S 30°38' E 159°46'1 0.3
2017-Dec-10 20:00S 30°38' E 159°46'0 0.0
2017-Dec-10 19:00S 30°38' E 159°46'1 1.3
2017-Dec-10 18:00S 30°37' E 159°46'1 0.6
2017-Dec-10 17:00S 30°36' E 159°46'1 0.6
2017-Dec-10 16:00S 30°35' E 159°46'0 0.0
2017-Dec-10 15:00S 30°35' E 159°46'3 1.1
2017-Dec-10 12:00S 30°37' E 159°50'0 0.0
2017-Dec-10 11:00S 30°37' E 159°50'1 0.5
2017-Dec-10 10:00S 30°37' E 159°49'1 0.8
2017-Dec-10 09:00S 30°37' E 159°49'1 0.5
2017-Dec-10 08:00S 30°37' E 159°49'1 0.5
2017-Dec-10 07:00S 30°37' E 159°49'0 0.0
2017-Dec-10 06:00S 30°37' E 159°49'1 1.3
2017-Dec-10 05:00S 30°36' E 159°48'0 0.0
2017-Dec-10 04:00S 30°36' E 159°48'2 0.4
2017-Dec-09 23:00S 30°37' E 159°50'2 0.8
2017-Dec-09 21:00S 30°38' E 159°49'1 0.5
2017-Dec-09 20:00S 30°38' E 159°49'1 0.6
2017-Dec-09 19:00S 30°37' E 159°49'0 0.0
2017-Dec-09 17:00S 30°37' E 159°49'1 0.6
2017-Dec-09 16:00S 30°37' E 159°49'0 0.0
2017-Dec-09 15:00S 30°37' E 159°49'2 0.7
2017-Dec-09 12:00S 30°38' E 159°50'0 0.0
2017-Dec-09 11:00S 30°38' E 159°50'1 0.5
2017-Dec-09 10:00S 30°38' E 159°51'1 0.6
2017-Dec-09 09:00S 30°38' E 159°51'1 1.2
2017-Dec-09 08:00S 30°39' E 159°50'1 0.3
2017-Dec-09 06:00S 30°38' E 159°50'1 0.8
2017-Dec-09 05:00S 30°38' E 159°49'0 0.0
2017-Dec-09 04:00S 30°38' E 159°49'2 1.6
2017-Dec-09 03:00S 30°39' E 159°50'1 0.2
2017-Dec-08 23:00S 30°40' E 159°50'1 0.8
2017-Dec-08 22:00S 30°40' E 159°50'0 0.0
2017-Dec-08 21:00S 30°40' E 159°50'1 0.8
2017-Dec-08 20:00S 30°41' E 159°50'1 0.5
2017-Dec-08 19:00S 30°41' E 159°50'1 0.8
2017-Dec-08 18:00S 30°41' E 159°51'1 0.6
2017-Dec-08 17:00S 30°42' E 159°51'0 0.0
2017-Dec-08 16:00S 30°42' E 159°51'0 0.0
2017-Dec-08 15:00S 30°42' E 159°51'2 0.4
2017-Dec-08 11:00S 30°43' E 159°52'1 1.2
2017-Dec-08 10:00S 30°44' E 159°53'1 0.8
2017-Dec-08 09:00S 30°43' E 159°53'1 1.2
2017-Dec-08 08:00S 30°42' E 159°53'2 1.0
2017-Dec-08 06:00S 30°43' E 159°55'2 1.5
2017-Dec-08 05:00S 30°43' E 159°56'0 0.0
2017-Dec-08 04:00S 30°43' E 159°56'3 0.6
2017-Dec-07 23:00S 30°44' E 160°00'  

Dump ship's entire track history